Time;durP1;ratioP1;P1;durP2;ratioP2;P2;SDS_P1;SDS_P2;PMS_P1;PMS_P2;Temp;Humidity;BMP_temperature;BMP_pressure;BME280_temperature;BME280_humidity;BME280_pressure;Samples;Min_cycle;Max_cycle;Signal;HPM_P1;HPM_P2
2022/05/28 00:00:19;;;;;;;5.60;2.42;;;;;;;17.67;46.78;100337.31;4986552;28;20037;-85
2022/05/28 00:02:46;;;;;;;6.85;2.40;;;;;;;17.70;47.27;100339.66;5000993;28;20057;-85
2022/05/28 00:05:13;;;;;;;6.35;2.50;;;;;;;17.70;47.34;100340.47;5015728;28;20116;-82
2022/05/28 00:07:40;;;;;;;6.40;2.05;;;;;;;17.70;47.53;100340.47;5003387;28;20045;-86
2022/05/28 00:10:10;;;;;;;8.05;2.63;;;;;;;17.69;47.55;100337.97;4995984;28;20124;-85
2022/05/28 00:12:37;;;;;;;9.25;2.13;;;;;;;17.68;47.37;100333.59;4992146;28;20045;-85
2022/05/28 00:15:05;;;;;;;7.25;2.47;;;;;;;17.67;47.37;100337.31;5016850;28;20052;-84
2022/05/28 00:17:32;;;;;;;7.15;1.75;;;;;;;17.66;47.66;100338.31;4998149;28;20053;-78
2022/05/28 00:20:00;;;;;;;11.63;2.47;;;;;;;17.61;46.64;100343.38;4992913;28;20132;-78
2022/05/28 00:22:26;;;;;;;9.45;2.72;;;;;;;17.60;46.20;100339.81;5002253;28;20481;-78
2022/05/28 00:24:55;;;;;;;5.93;2.15;;;;;;;17.57;46.18;100342.84;5007363;28;20046;-79
2022/05/28 00:27:22;;;;;;;6.95;1.85;;;;;;;17.53;47.32;100341.53;4975067;28;20046;-78
2022/05/28 00:29:48;;;;;;;5.20;2.00;;;;;;;17.50;47.29;100341.84;5005215;28;20501;-78
2022/05/28 00:32:15;;;;;;;8.65;2.50;;;;;;;17.47;47.16;100334.13;5006061;28;20041;-78
2022/05/28 00:34:42;;;;;;;6.72;2.08;;;;;;;17.41;46.62;100332.97;5007509;28;20094;-78
2022/05/28 00:37:33;;;;;;;7.68;2.33;;;;;;;17.33;47.22;100341.84;4982843;28;20054;-78
2022/05/28 00:40:02;;;;;;;4.32;1.90;;;;;;;17.36;47.15;100340.69;4940256;28;20050;-78
2022/05/28 00:42:30;;;;;;;8.82;2.05;;;;;;;17.31;46.80;100345.72;4999011;28;20109;-78
2022/05/28 00:44:57;;;;;;;9.45;2.10;;;;;;;17.26;46.09;100340.00;5022890;28;20046;-78
2022/05/28 00:47:24;;;;;;;8.55;2.42;;;;;;;17.20;45.51;100330.78;4998577;28;20046;-78
2022/05/28 00:49:52;;;;;;;10.55;2.50;;;;;;;17.13;44.98;100337.81;4978409;28;20050;-78
2022/05/28 00:52:21;;;;;;;13.35;2.35;;;;;;;17.01;44.32;100336.44;5007686;28;20034;-82
2022/05/28 00:54:48;;;;;;;6.40;1.70;;;;;;;16.78;44.77;100336.22;4981715;28;20053;-82
2022/05/28 00:57:16;;;;;;;9.65;2.45;;;;;;;16.39;44.58;100340.25;4977113;28;20085;-82
2022/05/28 00:59:44;;;;;;;13.80;2.67;;;;;;;16.34;44.88;100337.22;4969257;28;20048;-81
2022/05/28 01:02:15;;;;;;;9.82;2.65;;;;;;;16.38;45.01;100338.56;5004881;28;20045;-81
2022/05/28 01:04:52;;;;;;;6.45;1.92;;;;;;;16.26;44.62;100332.66;4998291;28;20392;-81
2022/05/28 01:07:34;;;;;;;7.43;1.80;;;;;;;16.44;45.35;100340.63;4985773;28;20045;-82
2022/05/28 01:10:13;;;;;;;6.97;2.15;;;;;;;16.31;43.01;100342.91;4986365;28;20053;-81
2022/05/28 01:12:53;;;;;;;5.78;1.90;;;;;;;16.37;44.14;100334.22;4968017;28;20053;-78
2022/05/28 01:15:25;;;;;;;7.50;2.05;;;;;;;16.17;44.10;100344.31;4978397;28;20046;-78
2022/05/28 01:18:02;;;;;;;9.40;2.08;;;;;;;16.13;43.75;100332.28;5015822;28;20080;-78
2022/05/28 01:20:40;;;;;;;7.82;1.58;;;;;;;16.04;44.20;100330.53;4987880;28;20065;-78
2022/05/28 01:23:12;;;;;;;11.75;2.53;;;;;;;15.77;44.17;100327.03;4988768;28;20054;-78
2022/05/28 01:26:03;;;;;;;7.70;1.85;;;;;;;15.72;44.31;100326.66;5015881;28;20111;-78
2022/05/28 01:28:33;;;;;;;11.70;1.90;;;;;;;15.72;44.97;100328.47;4969616;28;20046;-82
2022/05/28 01:31:01;;;;;;;11.20;2.17;;;;;;;15.86;45.18;100327.91;5000620;28;20375;-84
2022/05/28 01:33:28;;;;;;;5.57;1.70;;;;;;;16.09;45.44;100322.88;5019581;28;20447;-85
2022/05/28 01:35:56;;;;;;;7.68;2.58;;;;;;;16.08;44.69;100321.19;5013484;28;20054;-84
2022/05/28 01:38:23;;;;;;;10.07;2.65;;;;;;;16.14;44.61;100320.53;5015916;28;20048;-84
2022/05/28 01:40:51;;;;;;;9.50;2.08;;;;;;;16.08;44.76;100323.00;5013093;28;20038;-84
2022/05/28 01:43:19;;;;;;;9.15;1.88;;;;;;;16.22;45.56;100333.97;5010935;28;20572;-78
2022/05/28 01:45:47;;;;;;;9.20;2.10;;;;;;;16.30;45.22;100330.50;5015905;28;20064;-78
2022/05/28 01:48:17;;;;;;;9.88;2.08;;;;;;;16.36;45.08;100335.22;5009395;28;20062;-78
2022/05/28 01:50:46;;;;;;;4.00;1.50;;;;;;;16.43;45.36;100332.72;4960134;28;20049;-78
2022/05/28 01:56:02;;;;;;;9.88;1.90;;;;;;;16.42;45.26;100331.06;4968482;28;20514;-78
2022/05/28 01:58:29;;;;;;;4.15;1.52;;;;;;;16.44;45.50;100335.25;4978268;28;20054;-78
2022/05/28 02:00:56;;;;;;;3.67;1.60;;;;;;;16.43;45.51;100327.34;5000866;28;20046;-78
2022/05/28 02:03:25;;;;;;;9.45;2.10;;;;;;;16.38;45.12;100325.16;4979354;28;20128;-78
2022/05/28 02:05:52;;;;;;;7.65;1.92;;;;;;;16.40;45.08;100325.00;5003816;28;20099;-78
2022/05/28 02:08:19;;;;;;;7.75;1.77;;;;;;;16.37;45.44;100323.50;5002347;28;20057;-78
2022/05/28 02:10:55;;;;;;;6.75;1.73;;;;;;;16.35;45.40;100332.69;4998693;28;20569;-85
2022/05/28 02:13:29;;;;;;;5.68;1.65;;;;;;;16.33;45.69;100322.13;5012439;28;20042;-78
2022/05/28 02:16:11;;;;;;;12.20;1.95;;;;;;;16.30;45.54;100319.78;5003272;28;20065;-78
2022/05/28 02:18:52;;;;;;;9.73;2.13;;;;;;;16.28;45.75;100319.94;4945182;28;20096;-78
2022/05/28 02:21:42;;;;;;;10.98;2.10;;;;;;;16.24;45.63;100321.25;4981763;28;20100;-78
2022/05/28 02:24:19;;;;;;;7.95;1.88;;;;;;;16.19;45.91;100317.38;4963194;28;20088;-78
2022/05/28 02:26:54;;;;;;;10.13;2.22;;;;;;;16.10;45.93;100323.69;4986875;28;20122;-78
2022/05/28 02:29:21;;;;;;;3.63;1.70;;;;;;;16.04;46.53;100336.72;4990291;28;20045;-78
2022/05/28 02:31:49;;;;;;;6.78;1.85;;;;;;;15.93;47.23;100326.28;5005652;28;20049;-78
2022/05/28 02:34:17;;;;;;;9.15;2.05;;;;;;;15.87;47.45;100328.75;4981539;28;20557;-78
2022/05/28 02:36:44;;;;;;;6.15;1.67;;;;;;;15.79;47.66;100330.38;5007150;28;20572;-78
2022/05/28 02:39:11;;;;;;;4.63;2.08;;;;;;;15.73;47.95;100332.84;4991743;28;20052;-78
2022/05/28 02:41:38;;;;;;;7.15;2.38;;;;;;;15.67;48.25;100328.09;5005435;28;20072;-78
2022/05/28 02:44:06;;;;;;;7.53;1.83;;;;;;;15.61;47.95;100332.22;4998780;28;20076;-78
2022/05/28 02:46:33;;;;;;;6.03;1.52;;;;;;;15.57;47.76;100333.53;5008906;28;20052;-78
2022/05/28 02:48:59;;;;;;;11.80;2.28;;;;;;;15.53;47.86;100334.84;5001729;28;20805;-78
2022/05/28 02:51:27;;;;;;;6.97;1.70;;;;;;;15.48;48.19;100329.97;5014991;28;20069;-78
2022/05/28 02:53:54;;;;;;;6.03;1.55;;;;;;;15.45;48.04;100324.09;4986117;28;20517;-78
2022/05/28 02:56:22;;;;;;;6.82;2.00;;;;;;;15.39;48.15;100325.53;4979326;28;20045;-78
2022/05/28 02:58:48;;;;;;;8.48;2.05;;;;;;;15.33;47.80;100321.63;4989387;28;20095;-76
2022/05/28 03:01:27;;;;;;;6.68;2.22;;;;;;;15.30;48.50;100323.78;4995512;28;20045;-76
2022/05/28 03:03:55;;;;;;;6.60;2.13;;;;;;;15.28;48.34;100325.78;4979954;28;20045;-76
2022/05/28 03:06:22;;;;;;;7.30;1.90;;;;;;;15.24;48.38;100335.97;4981216;28;20053;-76
2022/05/28 03:08:49;;;;;;;7.28;2.20;;;;;;;15.21;48.33;100330.91;4987168;28;20060;-76
2022/05/28 03:11:16;;;;;;;10.32;2.75;;;;;;;15.16;48.81;100328.72;5021475;28;20056;-81
2022/05/28 03:13:42;;;;;;;7.95;1.73;;;;;;;15.10;48.77;100329.31;5014359;28;20111;-81
2022/05/28 03:16:09;;;;;;;6.60;1.77;;;;;;;15.03;48.67;100333.56;4999668;28;20041;-83
2022/05/28 03:18:36;;;;;;;7.80;1.67;;;;;;;14.98;48.90;100339.41;5011826;28;20690;-84
2022/05/28 03:21:04;;;;;;;4.32;2.50;;;;;;;14.90;49.53;100341.13;5021411;28;20741;-84
2022/05/28 03:23:31;;;;;;;6.35;1.73;;;;;;;14.86;49.52;100343.28;4996403;28;20057;-82
2022/05/28 03:25:58;;;;;;;9.38;1.67;;;;;;;14.79;50.04;100344.03;4996568;28;20048;-84
2022/05/28 03:28:25;;;;;;;7.63;2.22;;;;;;;14.70;50.14;100343.91;4993173;28;20057;-83
2022/05/28 03:30:52;;;;;;;8.07;1.98;;;;;;;14.68;50.41;100345.06;5010507;28;20046;-83
2022/05/28 03:33:18;;;;;;;5.38;1.55;;;;;;;14.67;50.22;100340.72;4998683;28;20136;-84
2022/05/28 03:35:45;;;;;;;7.00;2.03;;;;;;;14.66;49.91;100350.56;5015565;28;20405;-84
2022/05/28 03:38:12;;;;;;;5.40;1.50;;;;;;;14.64;50.39;100347.19;5015310;28;20053;-84
2022/05/28 03:40:38;;;;;;;6.30;1.50;;;;;;;14.64;50.41;100349.03;4998406;28;20037;-84
2022/05/28 03:43:06;;;;;;;6.13;1.65;;;;;;;14.62;50.43;100348.34;4998361;28;20489;-84
2022/05/28 03:45:33;;;;;;;5.72;1.90;;;;;;;14.60;50.45;100347.66;5014944;28;20100;-84
2022/05/28 03:48:03;;;;;;;7.63;1.92;;;;;;;14.61;50.61;100354.69;5014749;28;20046;-84
2022/05/28 03:50:29;;;;;;;10.50;2.97;;;;;;;14.61;50.63;100365.38;5016393;28;20049;-84
2022/05/28 03:52:56;;;;;;;7.72;1.65;;;;;;;14.69;51.54;100360.97;4978327;28;20042;-83
2022/05/28 03:55:23;;;;;;;10.70;1.70;;;;;;;14.83;51.20;100364.94;5012460;28;20080;-82
2022/05/28 03:57:50;;;;;;;7.85;2.03;;;;;;;14.92;50.53;100365.91;5016494;28;20041;-84
2022/05/28 04:00:17;;;;;;;8.23;2.30;;;;;;;14.99;50.31;100366.97;4997491;28;20038;-83
2022/05/28 04:02:44;;;;;;;6.88;2.13;;;;;;;15.10;50.15;100364.06;4995555;28;20050;-82
2022/05/28 04:05:12;;;;;;;8.00;2.53;;;;;;;15.19;50.05;100362.34;5008417;28;20081;-84
2022/05/28 04:07:39;;;;;;;7.95;2.30;;;;;;;15.29;49.94;100368.44;5003991;28;20053;-84
2022/05/28 04:10:07;;;;;;;4.82;2.17;;;;;;;15.32;49.83;100373.50;4997200;28;20485;-84
2022/05/28 04:12:34;;;;;;;9.23;2.67;;;;;;;15.35;49.86;100370.50;5002559;28;20057;-84
2022/05/28 04:15:00;;;;;;;6.20;2.45;;;;;;;15.39;49.67;100377.25;5011654;28;20420;-78
2022/05/28 04:17:27;;;;;;;7.30;3.10;;;;;;;15.56;49.81;100372.00;4982787;28;20052;-83
2022/05/28 04:19:59;;;;;;;7.15;2.40;;;;;;;15.78;49.62;100373.41;4995860;28;20049;-84
2022/05/28 04:22:26;;;;;;;12.60;2.97;;;;;;;15.96;49.75;100373.34;4998915;28;20046;-84
2022/05/28 04:24:52;;;;;;;8.27;2.20;;;;;;;16.05;49.36;100378.59;5013681;28;20606;-84
2022/05/28 04:27:19;;;;;;;8.35;2.60;;;;;;;16.16;49.32;100374.81;5011242;28;20041;-83
2022/05/28 04:29:46;;;;;;;7.50;2.50;;;;;;;16.17;48.66;100381.00;5016850;28;20057;-84
2022/05/28 04:32:37;;;;;;;9.68;2.45;;;;;;;16.00;47.90;100385.41;5003047;28;20041;-84
2022/05/28 04:35:04;;;;;;;7.32;2.20;;;;;;;16.08;48.47;100384.63;4977515;28;20599;-84
2022/05/28 04:37:31;;;;;;;9.43;2.70;;;;;;;15.95;48.49;100383.22;5012384;28;20401;-84
2022/05/28 04:39:58;;;;;;;9.77;2.83;;;;;;;15.82;47.83;100391.69;5014895;28;20523;-84
2022/05/28 04:42:24;;;;;;;9.98;2.25;;;;;;;15.68;47.99;100386.00;5011980;28;20515;-85
2022/05/28 04:44:51;;;;;;;6.10;2.45;;;;;;;15.49;47.93;100395.88;5005014;28;20100;-83
2022/05/28 04:47:18;;;;;;;8.43;2.58;;;;;;;15.29;48.28;100392.53;5011589;28;20052;-84
2022/05/28 04:49:44;;;;;;;13.57;2.58;;;;;;;15.10;48.75;100390.81;5012540;28;20045;-81
2022/05/28 04:52:11;;;;;;;8.52;2.30;;;;;;;14.96;49.42;100394.03;4998200;28;20045;-77
2022/05/28 04:54:38;;;;;;;6.38;2.17;;;;;;;14.86;49.33;100394.09;4993693;28;20125;-78
2022/05/28 04:57:05;;;;;;;9.88;3.30;;;;;;;14.79;49.64;100387.66;4997928;28;20050;-78
2022/05/28 04:59:32;;;;;;;10.20;2.30;;;;;;;14.80;49.94;100388.47;4991169;28;20409;-78
2022/05/28 05:01:58;;;;;;;10.93;2.58;;;;;;;14.83;49.96;100394.34;5008703;28;20140;-84
2022/05/28 05:04:26;;;;;;;6.22;1.88;;;;;;;14.94;50.11;100391.50;4996566;28;20045;-84
2022/05/28 05:06:52;;;;;;;7.25;2.83;;;;;;;14.98;49.94;100394.69;5011591;28;20079;-78
2022/05/28 05:09:19;;;;;;;8.82;2.50;;;;;;;14.98;49.62;100398.25;4994803;28;20033;-77
2022/05/28 05:11:46;;;;;;;8.38;2.50;;;;;;;15.01;49.99;100393.56;5005374;28;20049;-80
2022/05/28 05:14:12;;;;;;;5.63;2.40;;;;;;;15.04;49.68;100395.94;5008221;28;20045;-80
2022/05/28 05:16:39;;;;;;;10.70;2.65;;;;;;;15.04;49.89;100401.31;4988825;28;20045;-80
2022/05/28 05:19:06;;;;;;;6.85;2.55;;;;;;;14.98;49.47;100395.56;4982368;28;20649;-86
2022/05/28 05:21:33;;;;;;;8.75;2.47;;;;;;;15.04;49.64;100403.97;5000402;28;20054;-86
2022/05/28 05:24:00;;;;;;;9.15;2.60;;;;;;;15.04;49.35;100404.81;4995881;28;20065;-86
2022/05/28 05:26:27;;;;;;;5.57;1.77;;;;;;;15.02;49.62;100403.28;4987847;28;20042;-86
2022/05/28 05:28:54;;;;;;;8.40;2.40;;;;;;;15.05;49.60;100405.66;4989158;28;20052;-86
2022/05/28 05:31:21;;;;;;;9.73;2.58;;;;;;;15.01;49.86;100407.78;4985189;28;20037;-87
2022/05/28 05:33:48;;;;;;;7.20;2.15;;;;;;;15.06;49.80;100410.84;5012825;28;20037;-86
2022/05/28 05:36:15;;;;;;;12.25;2.83;;;;;;;15.06;50.15;100408.19;5014679;28;20459;-85
2022/05/28 05:38:43;;;;;;;5.57;2.38;;;;;;;15.11;50.23;100410.38;4977172;28;20046;-84
2022/05/28 05:41:10;;;;;;;11.38;2.10;;;;;;;15.20;50.42;100404.13;5003802;28;20045;-83
2022/05/28 05:43:43;;;;;;;9.07;2.35;;;;;;;15.26;50.31;100397.31;4997947;28;20049;-80
2022/05/28 05:46:10;;;;;;;9.85;2.42;;;;;;;15.38;50.06;100402.31;5013746;28;20042;-84
2022/05/28 05:48:37;;;;;;;7.88;2.63;;;;;;;15.44;50.15;100406.19;5010438;28;20050;-77
2022/05/28 05:51:06;;;;;;;6.03;2.00;;;;;;;15.52;50.09;100408.09;4996551;28;20155;-77
2022/05/28 05:53:32;;;;;;;8.50;2.55;;;;;;;15.57;50.35;100406.66;4993064;28;20540;-80
2022/05/28 05:55:59;;;;;;;6.15;2.20;;;;;;;15.61;49.89;100407.19;5001664;28;20064;-80
2022/05/28 05:58:26;;;;;;;6.97;2.40;;;;;;;15.61;49.39;100407.19;5015843;28;20493;-77
2022/05/28 06:00:53;;;;;;;11.20;2.30;;;;;;;15.67;49.38;100403.03;5020177;28;20473;-78
2022/05/28 06:03:20;;;;;;;9.80;2.60;;;;;;;15.67;49.51;100408.41;5016290;28;20041;-77
2022/05/28 06:05:46;;;;;;;10.18;2.17;;;;;;;15.76;49.33;100402.16;5000793;28;20420;-78
2022/05/28 06:08:15;;;;;;;7.53;2.10;;;;;;;15.81;49.67;100407.88;4986347;28;20049;-78
2022/05/28 06:10:44;;;;;;;13.70;2.50;;;;;;;15.87;49.75;100393.88;5002306;28;20071;-78
2022/05/28 06:13:10;;;;;;;6.03;1.98;;;;;;;15.97;49.97;100401.81;5003654;28;20037;-78
2022/05/28 06:15:37;;;;;;;11.77;2.08;;;;;;;16.06;49.94;100396.34;4999950;28;20045;-78
2022/05/28 06:18:04;;;;;;;11.68;2.30;;;;;;;16.12;49.64;100392.19;5009355;28;20056;-75
2022/05/28 06:20:31;;;;;;;6.82;1.52;;;;;;;16.16;49.85;100398.09;5016926;28;20385;-76
2022/05/28 06:22:57;;;;;;;10.95;2.17;;;;;;;16.19;49.03;100395.09;5024456;28;20065;-79
2022/05/28 06:25:24;;;;;;;11.63;2.30;;;;;;;16.31;49.11;100396.50;5014492;28;20041;-79
2022/05/28 06:27:53;;;;;;;7.05;2.10;;;;;;;16.38;48.79;100400.22;4998277;28;20566;-80
2022/05/28 06:30:20;;;;;;;5.03;1.75;;;;;;;16.46;48.59;100386.88;5003665;28;20049;-80
2022/05/28 06:32:46;;;;;;;9.00;1.67;;;;;;;16.43;48.24;100392.53;5017606;28;20053;-80
2022/05/28 06:35:13;;;;;;;5.18;1.52;;;;;;;16.34;47.69;100400.72;5018111;28;20461;-79
2022/05/28 06:37:40;;;;;;;8.50;2.08;;;;;;;16.27;48.62;100403.16;4996360;28;20045;-80
2022/05/28 06:40:08;;;;;;;6.88;1.92;;;;;;;16.22;48.19;100403.63;5002968;28;20532;-80
2022/05/28 06:42:35;;;;;;;8.43;1.63;;;;;;;15.98;47.63;100393.63;5017518;28;20409;-81
2022/05/28 06:45:02;;;;;;;8.38;1.77;;;;;;;15.89;48.12;100397.22;4996104;28;20053;-81
2022/05/28 06:47:29;;;;;;;7.03;1.52;;;;;;;15.91;48.72;100391.72;5003148;28;20050;-75
2022/05/28 06:52:40;;;;;;;6.68;1.60;;;;;;;16.11;49.20;100392.38;4985843;28;20116;-72
2022/05/28 06:55:07;;;;;;;10.00;1.70;;;;;;;16.20;48.05;100383.38;5011066;28;20076;-74
2022/05/28 06:57:34;;;;;;;8.23;1.95;;;;;;;16.21;48.53;100380.53;5015203;28;20045;-72
2022/05/28 07:00:01;;;;;;;9.00;1.55;;;;;;;16.23;49.17;100378.53;5015624;28;20539;-74
2022/05/28 07:02:28;;;;;;;7.00;1.70;;;;;;;16.33;47.90;100381.09;5002678;28;20121;-73
2022/05/28 07:04:54;;;;;;;6.78;1.85;;;;;;;16.38;47.70;100380.59;5002163;28;20501;-73
2022/05/28 07:07:21;;;;;;;8.07;1.67;;;;;;;16.39;47.55;100379.63;5001143;28;20116;-72
2022/05/28 07:09:48;;;;;;;4.85;1.40;;;;;;;16.38;47.73;100377.94;5017396;28;20071;-72
2022/05/28 07:12:15;;;;;;;11.02;2.53;;;;;;;16.42;47.70;100373.94;5013949;28;20045;-72
2022/05/28 07:14:41;;;;;;;13.13;1.77;;;;;;;16.17;46.59;100379.16;4994217;28;20045;-73
2022/05/28 07:17:08;;;;;;;7.60;1.65;;;;;;;16.11;47.19;100389.69;5010876;28;20049;-72
2022/05/28 07:19:35;;;;;;;3.95;1.50;;;;;;;16.15;47.71;100389.19;5017569;28;20049;-72
2022/05/28 07:22:02;;;;;;;6.85;1.80;;;;;;;16.24;47.54;100388.25;5003876;28;20045;-73
2022/05/28 07:24:29;;;;;;;11.20;1.80;;;;;;;16.34;46.59;100382.78;4994443;28;20049;-73
2022/05/28 07:26:56;;;;;;;10.48;1.77;;;;;;;16.14;46.85;100379.47;5016281;28;20657;-73
2022/05/28 07:29:23;;;;;;;5.53;1.50;;;;;;;16.27;47.30;100371.00;5010793;28;20537;-74
2022/05/28 07:31:50;;;;;;;10.05;1.70;;;;;;;16.40;47.33;100374.09;4997390;28;20049;-74
2022/05/28 07:34:17;;;;;;;6.85;1.80;;;;;;;16.43;47.05;100375.59;5010105;28;20053;-72
2022/05/28 07:36:43;;;;;;;4.95;1.33;;;;;;;16.41;47.31;100377.59;5021117;28;20045;-75
2022/05/28 07:39:10;;;;;;;5.18;1.42;;;;;;;16.28;47.36;100365.50;5006757;28;20394;-75
2022/05/28 07:41:37;;;;;;;4.13;1.38;;;;;;;16.16;46.51;100376.66;5014184;28;20498;-75
2022/05/28 07:44:04;;;;;;;7.78;1.55;;;;;;;16.15;46.51;100378.47;5009857;28;20162;-76
2022/05/28 07:46:32;;;;;;;8.25;1.63;;;;;;;16.11;46.50;100369.09;4998339;28;20505;-75
2022/05/28 07:49:01;;;;;;;7.93;1.60;;;;;;;16.12;46.77;100373.44;5016044;28;20037;-79
2022/05/28 07:51:31;;;;;;;9.53;1.90;;;;;;;16.19;46.67;100357.59;5014314;28;20616;-80
2022/05/28 07:53:58;;;;;;;11.18;1.73;;;;;;;16.31;46.89;100355.44;5006664;28;20040;-81
2022/05/28 07:56:25;;;;;;;5.60;1.73;;;;;;;16.37;47.41;100347.63;5014470;28;20052;-80
2022/05/28 07:58:51;;;;;;;7.47;1.60;;;;;;;16.53;46.72;100349.50;5017533;28;20688;-82
2022/05/28 08:01:23;;;;;;;7.63;1.73;;;;;;;16.44;46.68;100339.78;5014122;28;20123;-81
2022/05/28 08:03:51;;;;;;;8.20;2.22;;;;;;;16.43;46.28;100349.63;4997961;28;20522;-81
2022/05/28 08:06:18;;;;;;;7.55;2.25;;;;;;;16.47;46.93;100342.13;4991966;28;20122;-81
2022/05/28 08:08:45;;;;;;;10.27;2.10;;;;;;;16.52;46.86;100347.84;5014246;28;20124;-79
2022/05/28 08:11:12;;;;;;;11.23;2.17;;;;;;;16.55;46.74;100347.53;5011785;28;20042;-79
2022/05/28 08:13:39;;;;;;;5.95;1.83;;;;;;;16.62;46.63;100343.19;5006781;28;20045;-78
2022/05/28 08:16:06;;;;;;;7.50;2.42;;;;;;;16.69;47.00;100354.13;4994955;28;20358;-79
2022/05/28 08:18:35;;;;;;;7.93;1.95;;;;;;;16.62;46.89;100340.50;4999802;28;20042;-79
2022/05/28 08:23:48;;;;;;;9.70;2.15;;;;;;;16.61;46.12;100351.38;4964713;28;20044;-79
2022/05/28 08:26:15;;;;;;;8.75;1.88;;;;;;;16.66;46.28;100346.38;4993955;28;20096;-78
2022/05/28 08:28:43;;;;;;;10.70;1.85;;;;;;;16.64;46.66;100346.56;5010389;28;20517;-79
2022/05/28 08:31:09;;;;;;;8.38;1.92;;;;;;;16.73;46.53;100349.25;5013926;28;20046;-79
2022/05/28 08:33:36;;;;;;;9.18;2.10;;;;;;;16.67;46.21;100338.19;4999658;28;20095;-82
2022/05/28 08:36:04;;;;;;;8.25;1.95;;;;;;;16.58;46.03;100343.66;5013179;28;20054;-82
2022/05/28 08:38:31;;;;;;;10.60;2.17;;;;;;;16.53;45.58;100346.84;5014076;28;20736;-81
2022/05/28 08:41:02;;;;;;;9.52;2.50;;;;;;;16.52;45.49;100336.28;5010902;28;20179;-82
2022/05/28 08:43:43;;;;;;;9.05;2.03;;;;;;;16.60;46.27;100331.78;5011527;28;20053;-82
2022/05/28 08:46:13;;;;;;;9.15;2.40;;;;;;;16.70;46.54;100335.16;4995744;28;20045;-82
2022/05/28 08:48:52;;;;;;;10.52;2.30;;;;;;;16.73;45.51;100328.63;5014802;28;20042;-82
2022/05/28 08:51:33;;;;;;;7.90;1.63;;;;;;;16.60;45.51;100336.31;4978131;28;20073;-82
2022/05/28 08:54:09;;;;;;;8.43;1.73;;;;;;;16.51;44.35;100319.34;4991670;28;20049;-78
2022/05/28 08:56:38;;;;;;;4.18;1.60;;;;;;;16.38;44.04;100332.38;4968775;28;20501;-82
2022/05/28 08:59:18;;;;;;;5.20;1.35;;;;;;;16.41;43.51;100330.22;4984623;28;20053;-82
2022/05/28 09:01:51;;;;;;;8.82;1.48;;;;;;;16.52;45.48;100329.09;4965150;28;20563;-82
2022/05/28 09:04:21;;;;;;;9.07;1.85;;;;;;;16.55;45.10;100320.72;4999907;28;20082;-75
2022/05/28 09:06:53;;;;;;;7.78;1.90;;;;;;;16.70;45.13;100315.56;4996079;28;20045;-76
2022/05/28 09:09:29;;;;;;;8.23;1.48;;;;;;;16.66;43.81;100316.88;5010241;28;20370;-74
2022/05/28 09:12:02;;;;;;;4.57;1.23;;;;;;;16.83;44.64;100304.41;5013758;28;20127;-75
2022/05/28 09:14:35;;;;;;;2.92;1.20;;;;;;;16.92;44.35;100308.78;4975469;28;20121;-75
2022/05/28 09:17:06;;;;;;;8.35;1.50;;;;;;;16.95;44.28;100318.34;4996472;28;20053;-75
2022/05/28 09:19:42;;;;;;;9.90;1.60;;;;;;;17.00;44.60;100319.50;5001236;28;20050;-75
2022/05/28 09:22:08;;;;;;;5.90;1.50;;;;;;;16.96;44.27;100309.28;5008340;28;20074;-76
2022/05/28 09:24:36;;;;;;;5.30;1.77;;;;;;;16.99;44.41;100322.34;5007471;28;20719;-75
2022/05/28 09:27:21;;;;;;;6.93;1.30;;;;;;;16.67;42.56;100322.09;5003328;28;20053;-75
2022/05/28 09:30:01;;;;;;;3.63;1.45;;;;;;;16.73;43.75;100322.44;4969304;28;20114;-75
2022/05/28 09:32:59;;;;;;;7.25;1.60;;;;;;;16.77;43.30;100303.19;4966983;28;20490;-76
2022/05/28 09:35:52;;;;;;;9.18;1.30;;;;;;;16.81;42.60;100307.22;4956751;28;20111;-75
2022/05/28 09:38:21;;;;;;;5.13;1.23;;;;;;;16.82;42.45;100302.72;4956947;28;20379;-76
2022/05/28 09:40:51;;;;;;;4.18;0.90;;;;;;;16.67;42.44;100292.59;5014778;28;20056;-75
2022/05/28 09:43:52;;;;;;;3.92;1.40;;;;;;;16.58;41.79;100292.72;4982210;28;20112;-75
2022/05/28 09:46:38;;;;;;;2.75;0.88;;;;;;;16.62;41.61;100297.63;4963083;28;20063;-75
2022/05/28 09:49:20;;;;;;;4.75;1.23;;;;;;;16.76;42.19;100287.25;4986199;28;20045;-75
2022/05/28 09:52:10;;;;;;;5.07;1.08;;;;;;;16.81;41.69;100272.34;4963638;28;20050;-76
2022/05/28 09:54:37;;;;;;;1.35;0.82;;;;;;;17.05;42.58;100273.41;4950674;28;20130;-75
2022/05/28 09:57:10;;;;;;;3.95;1.25;;;;;;;17.03;40.15;100276.25;4999758;28;20037;-75
2022/05/28 09:59:43;;;;;;;2.13;0.88;;;;;;;16.99;41.17;100285.63;4992620;28;20053;-75
2022/05/28 10:02:22;;;;;;;3.20;1.10;;;;;;;16.97;40.31;100282.28;4999558;28;20057;-75
2022/05/28 10:05:16;;;;;;;1.60;0.93;;;;;;;16.89;40.07;100280.44;5000020;28;20052;-75
2022/05/28 10:07:46;;;;;;;5.35;1.50;;;;;;;16.93;42.02;100281.78;4961578;28;20053;-76
2022/05/28 10:10:28;;;;;;;2.85;0.90;;;;;;;16.84;41.95;100282.78;5009792;28;20712;-78
2022/05/28 10:13:15;;;;;;;4.65;1.02;;;;;;;16.90;42.22;100278.59;4979845;28;20052;-75
2022/05/28 10:15:55;;;;;;;5.50;1.50;;;;;;;17.12;42.37;100272.56;4964021;28;20049;-81
2022/05/28 10:18:25;;;;;;;5.10;1.00;;;;;;;17.10;42.27;100271.06;4970760;28;20041;-81
2022/05/28 10:20:59;;;;;;;6.65;1.25;;;;;;;17.14;42.69;100273.22;5025117;28;20064;-79
2022/05/28 10:24:19;;;;;;;5.15;1.27;;;;;;;17.11;41.73;100270.03;4967177;28;20058;-79
2022/05/28 10:26:49;;;;;;;3.28;1.00;;;;;;;17.29;41.46;100272.56;4946134;28;20050;-79
2022/05/28 10:29:23;;;;;;;3.30;1.23;;;;;;;17.10;40.48;100265.69;4988706;28;20068;-79
2022/05/28 10:31:51;;;;;;;3.03;1.20;;;;;;;17.13;41.42;100268.88;5009608;28;20072;-79
2022/05/28 10:34:38;;;;;;;3.80;1.20;;;;;;;17.18;40.77;100265.69;5004262;28;20753;-79
2022/05/28 10:37:11;;;;;;;3.65;1.40;;;;;;;17.24;40.96;100269.53;4993216;28;20064;-79
2022/05/28 10:39:39;;;;;;;4.38;1.15;;;;;;;17.30;42.05;100266.16;5007181;28;20054;-75
2022/05/28 10:42:08;;;;;;;4.20;1.20;;;;;;;17.43;41.75;100269.19;5014938;28;20784;-75
2022/05/28 10:44:35;;;;;;;4.47;1.20;;;;;;;17.36;41.10;100271.72;4998075;28;20104;-75
2022/05/28 10:47:30;;;;;;;4.88;1.10;;;;;;;16.98;41.21;100262.50;5002104;28;20404;-74
2022/05/28 10:50:26;;;;;;;4.95;1.55;;;;;;;16.99;42.43;100266.84;4965572;28;20132;-74
2022/05/28 10:52:55;;;;;;;5.72;1.10;;;;;;;17.00;42.40;100273.91;4989791;28;20049;-75
2022/05/28 10:55:30;;;;;;;5.72;1.00;;;;;;;17.06;43.28;100261.66;5003023;28;20038;-80
2022/05/28 10:58:29;;;;;;;9.20;1.38;;;;;;;16.96;41.73;100253.78;4999886;28;20165;-81
2022/05/28 11:01:02;;;;;;;4.47;1.30;;;;;;;16.98;41.99;100249.09;4969889;28;20124;-83
2022/05/28 11:03:52;;;;;;;2.85;1.10;;;;;;;16.99;41.00;100253.44;4981661;28;20050;-82
2022/05/28 11:06:41;;;;;;;3.65;1.10;;;;;;;17.07;41.22;100253.47;4970448;28;20049;-82
2022/05/28 11:09:29;;;;;;;7.72;1.40;;;;;;;17.04;40.65;100248.41;4985857;28;20052;-83
2022/05/28 11:12:37;;;;;;;3.28;0.80;;;;;;;16.90;37.88;100246.41;4966264;28;20091;-83
2022/05/28 11:15:13;;;;;;;3.88;1.08;;;;;;;16.92;39.17;100242.56;4942968;28;20416;-83
2022/05/28 11:18:00;;;;;;;3.80;1.20;;;;;;;16.89;39.82;100239.34;5018577;28;20089;-83
2022/05/28 11:20:42;;;;;;;3.45;0.98;;;;;;;16.87;40.50;100249.44;4937486;28;20053;-83
2022/05/28 11:24:03;;;;;;;7.97;0.90;;;;;;;16.99;40.01;100234.66;5006442;28;20048;-83
2022/05/28 11:26:59;;;;;;;3.85;1.10;;;;;;;17.11;40.55;100225.25;4912624;28;20063;-82
2022/05/28 11:29:55;;;;;;;4.22;1.20;;;;;;;17.39;40.69;100216.84;4952325;28;20067;-82
2022/05/28 11:32:28;;;;;;;6.90;1.50;;;;;;;17.43;40.15;100215.50;4971281;28;20045;-83
2022/05/28 11:34:57;;;;;;;;;;;;;;;17.39;40.62;100216.84;4997183;28;20049;-81
2022/05/28 11:37:33;;;;;;;6.00;1.40;;;;;;;17.44;40.27;100219.84;5003756;28;19967;-83
2022/05/28 11:40:02;;;;;;;6.90;0.90;;;;;;;17.42;40.74;100224.56;4988562;28;20063;-83
2022/05/28 11:42:54;;;;;;;3.38;1.10;;;;;;;17.50;39.26;100213.81;5015368;28;20050;-78
2022/05/28 11:45:36;;;;;;;3.70;1.27;;;;;;;17.71;41.04;100205.19;4936031;28;20050;-84
2022/05/28 11:51:27;;;;;;;2.70;0.95;;;;;;;17.73;39.22;100208.56;5014760;28;20049;-78
2022/05/28 11:51:29;;;;;;;7.20;1.02;;;;;;;17.87;39.79;100196.25;4907375;28;20494;-84